Time;durP1;ratioP1;P1;durP2;ratioP2;P2;SDS_P1;SDS_P2;PMS_P1;PMS_P2;Temp;Humidity;BMP_temperature;BMP_pressure;BME280_temperature;BME280_humidity;BME280_pressure;Samples;Min_cycle;Max_cycle;Signal;HPM_P1;HPM_P2
2022/09/01 00:05:27;;;;;;;14.23;8.13;;;;;;;15.80;100.00;100592.16;20827897;28;20049;-70
2022/09/01 00:15:28;;;;;;;10.65;8.05;;;;;;;15.78;100.00;100596.66;20827728;28;20053;-69
2022/09/01 00:25:30;;;;;;;10.70;6.88;;;;;;;15.68;100.00;100589.97;20827335;28;20076;-69
2022/09/01 00:35:31;;;;;;;11.73;7.75;;;;;;;15.43;100.00;100585.47;20826223;28;20461;-69
2022/09/01 00:45:37;;;;;;;11.23;7.95;;;;;;;15.41;100.00;100595.19;20825078;28;20081;-69
2022/09/01 00:55:38;;;;;;;11.50;8.05;;;;;;;15.35;100.00;100595.38;20825403;28;20045;-69
2022/09/01 01:05:40;;;;;;;9.68;7.93;;;;;;;15.16;100.00;100591.63;20824233;28;20056;-69
2022/09/01 01:15:44;;;;;;;11.02;8.18;;;;;;;15.10;100.00;100582.97;20824931;28;20068;-69
2022/09/01 01:25:45;;;;;;;13.87;8.77;;;;;;;14.99;100.00;100577.16;20822391;28;20053;-69
2022/09/01 01:35:47;;;;;;;12.60;8.35;;;;;;;14.96;100.00;100566.72;20820541;28;20600;-69
2022/09/01 01:45:50;;;;;;;12.32;8.50;;;;;;;14.90;100.00;100574.84;20819791;28;20061;-70
2022/09/01 01:55:52;;;;;;;12.93;8.27;;;;;;;14.91;100.00;100578.34;20820221;28;20059;-69
2022/09/01 02:05:53;;;;;;;12.43;8.32;;;;;;;14.87;100.00;100588.09;20818998;28;20052;-69
2022/09/01 02:15:55;;;;;;;12.85;7.78;;;;;;;14.62;100.00;100586.19;20818592;28;20068;-69
2022/09/01 02:25:56;;;;;;;14.30;8.82;;;;;;;14.59;100.00;100580.16;20818053;28;20398;-69
2022/09/01 02:36:19;;;;;;;10.68;8.15;;;;;;;14.56;100.00;100581.13;20816312;28;20045;-69
2022/09/01 02:46:22;;;;;;;13.75;9.02;;;;;;;14.36;100.00;100579.00;20816554;28;20053;-69
2022/09/01 02:56:26;;;;;;;14.57;9.90;;;;;;;14.42;100.00;100577.09;20817516;28;20063;-69
2022/09/01 03:06:27;;;;;;;11.95;8.63;;;;;;;14.38;100.00;100576.34;20816513;28;20099;-69
2022/09/01 03:16:29;;;;;;;13.25;9.73;;;;;;;14.42;100.00;100578.00;20815490;28;20053;-69
2022/09/01 03:26:31;;;;;;;12.77;9.77;;;;;;;14.29;100.00;100571.34;20817474;28;20046;-69
2022/09/01 03:36:32;;;;;;;13.07;9.15;;;;;;;14.26;100.00;100582.81;20813929;28;20059;-69
2022/09/01 03:46:34;;;;;;;14.48;9.75;;;;;;;14.16;100.00;100575.22;20815475;28;20068;-69
2022/09/01 03:56:40;;;;;;;14.52;9.82;;;;;;;14.11;100.00;100576.19;20817326;28;20046;-69
2022/09/01 04:06:41;;;;;;;12.57;9.10;;;;;;;14.03;100.00;100580.78;20827148;28;20124;-69
2022/09/01 04:27:03;;;;;;;14.57;10.05;;;;;;;13.94;100.00;100582.81;20826829;28;20502;-69
2022/09/01 04:37:05;;;;;;;15.45;10.00;;;;;;;13.86;100.00;100583.91;20826443;28;20049;-69
2022/09/01 04:47:09;;;;;;;15.48;10.52;;;;;;;13.82;100.00;100578.75;20839356;23;20061;-76
2022/09/01 04:57:11;;;;;;;16.17;10.95;;;;;;;13.76;100.00;100577.16;20829741;28;20053;-76
2022/09/01 05:07:13;;;;;;;14.95;11.13;;;;;;;13.72;100.00;100572.88;20825898;28;20046;-76
2022/09/01 05:17:16;;;;;;;13.95;10.50;;;;;;;13.76;100.00;100571.03;20810172;28;20379;-76
2022/09/01 05:27:17;;;;;;;14.68;9.43;;;;;;;13.77;100.00;100578.00;20825634;28;20649;-77
2022/09/01 05:37:19;;;;;;;15.10;9.63;;;;;;;13.85;100.00;100583.94;20806518;28;20053;-76
2022/09/01 05:47:21;;;;;;;13.43;10.00;;;;;;;14.05;100.00;100579.00;20823809;28;20042;-79
2022/09/01 05:57:23;;;;;;;14.80;11.90;;;;;;;14.33;100.00;100588.78;20825559;28;20482;-77
2022/09/01 06:07:39;;;;;;;15.77;11.23;;;;;;;14.58;100.00;100584.56;20810319;28;20068;-77
2022/09/01 06:17:42;;;;;;;22.42;12.30;;;;;;;15.11;100.00;100595.25;20833942;28;20394;-77
2022/09/01 06:27:44;;;;;;;19.40;12.98;;;;;;;15.52;100.00;100595.72;20805486;28;20046;-76
2022/09/01 06:37:47;;;;;;;20.08;13.15;;;;;;;15.89;100.00;100605.06;20845415;23;20057;-76
2022/09/01 06:47:49;;;;;;;21.73;13.80;;;;;;;16.19;100.00;100603.09;20834064;28;20088;-77
2022/09/01 06:57:57;;;;;;;21.38;14.57;;;;;;;16.41;100.00;100613.78;20840166;28;20148;-77
2022/09/01 07:18:51;;;;;;;20.30;13.43;;;;;;;16.90;100.00;100615.47;20841358;28;20037;-76
2022/09/01 07:29:02;;;;;;;19.20;13.10;;;;;;;17.13;100.00;100614.59;20832357;28;20330;-77
2022/09/01 07:39:06;;;;;;;17.67;12.70;;;;;;;17.22;100.00;100617.81;20848591;28;20046;-76
2022/09/01 07:49:28;;;;;;;16.65;12.90;;;;;;;17.68;100.00;100630.03;20857106;23;20041;-80
2022/09/01 07:59:34;;;;;;;17.83;11.93;;;;;;;17.94;100.00;100627.19;20833208;28;20071;-77
2022/09/01 08:09:36;;;;;;;15.15;10.75;;;;;;;18.34;100.00;100620.13;20831324;28;20064;-78
2022/09/01 08:19:45;;;;;;;16.20;11.48;;;;;;;18.51;100.00;100629.16;20830646;28;20525;-78
2022/09/01 08:29:47;;;;;;;15.63;10.85;;;;;;;18.92;100.00;100627.28;20831003;28;20399;-78
2022/09/01 08:39:49;;;;;;;15.30;10.05;;;;;;;19.17;100.00;100619.91;20829259;28;20426;-77
2022/09/01 08:49:50;;;;;;;10.95;9.00;;;;;;;19.48;100.00;100631.69;20828571;28;20045;-80
2022/09/01 08:59:51;;;;;;;14.02;8.85;;;;;;;19.70;100.00;100635.03;20827923;28;20378;-79
2022/09/01 09:09:53;;;;;;;11.95;8.32;;;;;;;20.25;97.64;100629.56;20825496;28;20050;-77
2022/09/01 09:19:54;;;;;;;10.18;6.80;;;;;;;20.87;88.84;100623.66;20824613;28;20061;-79
2022/09/01 09:29:55;;;;;;;8.68;5.57;;;;;;;21.29;86.99;100619.53;20824876;28;20053;-77
2022/09/01 09:39:57;;;;;;;9.48;5.75;;;;;;;21.46;84.47;100616.78;20822735;28;20494;-78
2022/09/01 09:49:59;;;;;;;7.82;5.30;;;;;;;21.35;86.25;100611.22;20822742;28;20056;-78
2022/09/01 10:00:00;;;;;;;7.60;4.93;;;;;;;21.17;84.54;100605.94;20821539;28;20053;-77
2022/09/01 10:10:02;;;;;;;7.22;5.07;;;;;;;21.55;78.39;100594.94;20821438;28;20063;-77
2022/09/01 10:20:05;;;;;;;7.53;4.22;;;;;;;22.42;75.33;100592.41;20820897;28;20391;-81
2022/09/01 10:30:06;;;;;;;6.78;4.80;;;;;;;22.38;73.71;100582.03;20820438;28;20053;-77
2022/09/01 10:40:20;;;;;;;8.35;5.05;;;;;;;23.00;71.54;100577.22;20818808;28;20052;-80
2022/09/01 10:50:31;;;;;;;7.00;4.72;;;;;;;23.20;67.36;100575.94;20912771;23;20079;-69
2022/09/01 11:00:35;;;;;;;9.80;5.32;;;;;;;22.91;69.21;100565.31;20818464;28;20041;-69
2022/09/01 11:10:38;;;;;;;7.50;5.15;;;;;;;23.41;56.12;100560.28;20827545;28;20148;-68
2022/09/01 11:20:39;;;;;;;7.03;4.47;;;;;;;23.66;54.11;100552.34;20833874;28;20338;-68
2022/09/01 11:30:49;;;;;;;7.13;4.75;;;;;;;23.18;53.56;100554.63;20833345;28;20780;-68
2022/09/01 11:40:50;;;;;;;6.80;4.55;;;;;;;23.98;54.32;100541.28;20832945;28;20141;-68
2022/09/01 11:50:52;;;;;;;7.38;4.60;;;;;;;23.55;53.90;100531.66;20831190;28;20057;-68
2022/09/01 12:00:53;;;;;;;7.03;4.68;;;;;;;23.82;54.85;100527.25;20830387;28;20041;-69
2022/09/01 12:10:55;;;;;;;5.90;4.50;;;;;;;23.86;53.65;100520.72;20829470;28;20421;-68
2022/09/01 12:20:56;;;;;;;6.82;4.30;;;;;;;24.13;52.10;100510.78;20827453;28;20053;-68
2022/09/01 12:30:57;;;;;;;6.22;4.07;;;;;;;24.16;51.95;100494.50;20828413;28;20057;-69
2022/09/01 12:40:59;;;;;;;7.35;4.55;;;;;;;23.82;53.03;100505.88;20827717;28;20045;-68
2022/09/01 12:51:01;;;;;;;7.28;4.50;;;;;;;23.81;52.46;100494.28;20825885;28;20056;-68
2022/09/01 13:01:03;;;;;;;6.55;4.35;;;;;;;23.84;51.79;100483.41;20827436;28;20096;-68
2022/09/01 13:11:05;;;;;;;5.97;3.97;;;;;;;24.52;49.87;100479.47;20824913;28;20080;-68
2022/09/01 13:21:06;;;;;;;7.45;3.75;;;;;;;24.33;48.45;100469.22;20823101;28;20049;-68
2022/09/01 13:31:08;;;;;;;6.07;4.03;;;;;;;24.53;48.78;100460.66;20822610;28;20060;-68
2022/09/01 13:41:30;;;;;;;5.53;3.00;;;;;;;23.78;46.95;100455.28;20822440;28;20111;-68
2022/09/01 13:51:31;;;;;;;5.35;3.25;;;;;;;23.43;50.12;100451.50;20821676;28;20425;-68
2022/09/01 14:01:33;;;;;;;6.70;2.78;;;;;;;23.86;48.59;100444.06;20821056;28;20087;-68
2022/09/01 14:11:35;;;;;;;6.20;3.13;;;;;;;24.38;47.31;100432.28;20821112;28;20063;-68
2022/09/01 14:21:37;;;;;;;5.53;2.80;;;;;;;24.05;47.84;100432.88;20820124;28;20057;-68
2022/09/01 14:31:38;;;;;;;4.55;2.80;;;;;;;24.03;47.87;100418.75;20814009;28;20422;-68
2022/09/01 14:41:40;;;;;;;4.93;2.60;;;;;;;24.16;47.81;100403.56;20808837;28;20053;-68
2022/09/01 14:51:41;;;;;;;4.47;2.50;;;;;;;24.14;46.51;100394.75;20818080;28;20394;-68
2022/09/01 15:02:02;;;;;;;4.10;2.45;;;;;;;24.18;47.77;100390.06;20816753;28;20033;-68
2022/09/01 15:12:04;;;;;;;5.32;2.72;;;;;;;24.27;47.50;100381.34;20817582;28;20060;-68
2022/09/01 15:22:07;;;;;;;6.05;2.50;;;;;;;24.21;47.17;100374.63;20817461;28;20694;-68
2022/09/01 15:32:09;;;;;;;4.25;2.78;;;;;;;24.07;48.33;100366.75;20816654;28;20042;-68
2022/09/01 15:42:27;;;;;;;4.70;2.40;;;;;;;24.08;46.41;100363.13;20815855;28;20057;-68
2022/09/01 15:52:29;;;;;;;4.75;2.83;;;;;;;24.13;47.75;100360.97;20818984;28;20049;-68
2022/09/01 16:02:30;;;;;;;4.10;2.50;;;;;;;23.89;49.58;100357.38;20833411;28;20045;-69
2022/09/01 16:12:34;;;;;;;4.70;2.72;;;;;;;23.71;49.63;100355.06;20862910;28;20636;-68
2022/09/01 16:22:36;;;;;;;7.40;2.90;;;;;;;23.59;50.22;100347.88;20867840;28;20053;-69
2022/09/01 16:32:37;;;;;;;4.53;3.25;;;;;;;23.45;51.89;100334.63;20820510;28;20619;-69
2022/09/01 16:42:39;;;;;;;4.53;3.03;;;;;;;23.52;49.25;100328.78;20880457;28;20052;-69
2022/09/01 16:52:41;;;;;;;4.60;3.00;;;;;;;23.28;51.01;100338.47;20901834;28;20059;-69
2022/09/01 17:02:42;;;;;;;4.68;3.15;;;;;;;23.12;52.06;100335.16;20899884;28;20055;-69
2022/09/01 17:12:45;;;;;;;5.40;3.00;;;;;;;22.94;52.61;100331.94;20872884;28;20060;-70
2022/09/01 17:22:47;;;;;;;5.32;3.40;;;;;;;22.79;53.67;100340.00;20817338;28;20058;-69
2022/09/01 17:32:48;;;;;;;4.68;3.03;;;;;;;22.49;54.14;100340.25;20816154;28;20072;-69
2022/09/01 17:42:52;;;;;;;5.22;3.20;;;;;;;22.22;54.06;100336.72;20816066;28;20055;-68
2022/09/01 17:52:54;;;;;;;6.15;3.47;;;;;;;22.06;55.94;100350.16;20814525;28;20065;-68
2022/09/01 18:02:57;;;;;;;5.18;3.10;;;;;;;21.70;55.97;100359.56;20814047;28;20046;-68
2022/09/01 18:12:59;;;;;;;4.50;2.70;;;;;;;21.35;57.62;100361.72;20843213;28;20441;-68
2022/09/01 18:23:00;;;;;;;7.07;3.30;;;;;;;21.18;57.52;100372.50;20895095;28;20553;-68
2022/09/01 18:33:03;;;;;;;5.28;3.00;;;;;;;21.13;57.62;100391.44;20894524;28;20041;-68
2022/09/01 18:43:05;;;;;;;5.90;2.90;;;;;;;21.00;58.80;100393.09;20893917;28;20413;-68
2022/09/01 18:53:07;;;;;;;6.47;2.90;;;;;;;20.78;59.34;100389.97;20892767;28;20060;-68
2022/09/01 19:03:08;;;;;;;4.55;2.78;;;;;;;20.53;60.96;100391.38;20892712;28;20041;-68
2022/09/01 19:13:10;;;;;;;5.88;2.60;;;;;;;20.37;61.06;100401.16;20862597;28;20056;-68
2022/09/01 19:23:12;;;;;;;5.88;2.85;;;;;;;20.17;63.24;100400.47;20809779;28;20049;-68
2022/09/01 19:33:13;;;;;;;5.85;3.10;;;;;;;20.06;62.49;100405.50;20821610;28;20506;-68
2022/09/01 19:43:16;;;;;;;4.55;3.00;;;;;;;19.98;62.96;100413.06;20823874;28;20073;-68
2022/09/01 19:53:18;;;;;;;4.82;2.90;;;;;;;19.75;63.48;100413.44;20823405;28;20119;-68
2022/09/01 20:03:19;;;;;;;6.03;2.83;;;;;;;19.53;65.21;100418.97;20822188;28;20048;-68
2022/09/01 20:13:21;;;;;;;6.20;3.00;;;;;;;19.45;64.49;100414.06;20853982;28;20076;-68
2022/09/01 20:23:22;;;;;;;8.82;3.10;;;;;;;19.18;66.67;100414.56;20903353;28;20316;-68
2022/09/01 20:33:23;;;;;;;6.30;3.08;;;;;;;18.94;67.62;100419.31;20901844;28;20053;-68
2022/09/01 20:43:25;;;;;;;4.88;3.10;;;;;;;18.80;67.90;100420.94;20903359;28;20057;-68
2022/09/01 20:53:26;;;;;;;8.95;3.72;;;;;;;18.56;68.84;100415.88;20901887;28;20044;-68
2022/09/01 21:03:28;;;;;;;6.75;3.05;;;;;;;18.39;69.34;100419.31;20899632;28;20068;-68
2022/09/01 21:13:34;;;;;;;4.60;2.95;;;;;;;18.24;69.72;100416.53;20865220;28;20045;-68
2022/09/01 21:23:36;;;;;;;5.22;3.35;;;;;;;18.07;70.77;100407.59;20817401;28;20056;-68
2022/09/01 21:33:37;;;;;;;6.63;3.70;;;;;;;17.92;71.10;100413.63;20815626;28;20057;-68
2022/09/01 21:43:40;;;;;;;6.78;3.80;;;;;;;17.78;71.59;100411.59;20815744;28;20058;-68
2022/09/01 21:53:42;;;;;;;5.18;3.35;;;;;;;17.63;71.94;100410.47;20814296;28;20061;-68
2022/09/01 22:03:43;;;;;;;5.57;3.67;;;;;;;17.51;73.06;100412.78;20816317;28;20052;-68
2022/09/01 22:13:45;;;;;;;6.78;3.80;;;;;;;17.46;72.79;100410.34;20820780;28;20083;-68
2022/09/01 22:23:46;;;;;;;6.03;4.00;;;;;;;17.34;73.57;100394.97;20820318;28;20050;-68
2022/09/01 22:33:47;;;;;;;7.43;3.92;;;;;;;17.19;74.03;100397.34;20818876;28;20052;-68
2022/09/01 22:43:49;;;;;;;7.93;4.05;;;;;;;17.16;74.11;100391.38;20819188;28;20050;-68
2022/09/01 22:53:50;;;;;;;7.03;4.05;;;;;;;17.07;74.76;100397.91;20834739;23;20050;-75
2022/09/01 23:03:51;;;;;;;9.30;4.30;;;;;;;16.88;77.69;100394.31;20828153;28;20533;-76
2022/09/01 23:13:54;;;;;;;7.00;4.55;;;;;;;16.79;77.39;100402.63;20835194;28;20107;-75
2022/09/01 23:23:56;;;;;;;5.88;4.03;;;;;;;16.47;80.99;100394.19;20834306;28;20524;-74
2022/09/01 23:33:59;;;;;;;8.73;4.88;;;;;;;16.35;81.62;100386.75;20832372;28;20107;-75
2022/09/01 23:44:01;;;;;;;6.18;4.43;;;;;;;16.27;82.62;100383.53;20831901;28;20282;-75
2022/09/01 23:54:04;;;;;;;7.93;4.70;;;;;;;16.14;82.35;100375.22;20831798;28;20081;-76
